Time;durP1;ratioP1;P1;durP2;ratioP2;P2;SDS_P1;SDS_P2;PMS_P1;PMS_P2;Temp;Humidity;BMP_temperature;BMP_pressure;BME280_temperature;BME280_humidity;BME280_pressure;Samples;Min_cycle;Max_cycle;Signal;HPM_P1;HPM_P2
2023/03/20 08:57:53;;;;;;;393.08;302.05;;;;;;;20.84;53.61;101819.00;4968106;27;3699859;-47
2023/03/20 09:00:21;;;;;;;382.25;290.23;;;;;;;21.77;50.92;101812.91;5086568;28;20042;-48
2023/03/20 09:02:48;;;;;;;373.70;282.88;;;;;;;22.44;48.58;101826.56;5089343;28;20037;-48
2023/03/20 09:05:16;;;;;;;379.67;286.75;;;;;;;22.97;47.49;101829.97;5079958;28;20103;-46
2023/03/20 09:07:44;;;;;;;365.27;277.48;;;;;;;23.34;46.12;101818.91;5088961;28;20105;-48
2023/03/20 09:10:12;;;;;;;365.20;275.13;;;;;;;23.50;45.78;101825.47;5086477;28;20029;-47
2023/03/20 09:12:39;;;;;;;370.55;280.08;;;;;;;23.70;45.66;101813.78;5088290;28;20031;-47
2023/03/20 09:15:07;;;;;;;362.05;278.13;;;;;;;23.76;45.35;101814.84;5088434;28;20032;-46
2023/03/20 09:17:34;;;;;;;352.75;268.48;;;;;;;23.82;45.05;101819.38;5088059;28;20020;-47
2023/03/20 09:20:01;;;;;;;354.35;263.50;;;;;;;23.87;44.81;101814.25;5088610;28;20028;-47
2023/03/20 09:22:29;;;;;;;350.77;267.88;;;;;;;23.96;44.58;101818.03;5088837;28;20390;-47
2023/03/20 09:24:56;;;;;;;365.77;268.55;;;;;;;24.03;44.56;101815.59;5088250;28;20032;-48
2023/03/20 09:27:24;;;;;;;384.63;277.38;;;;;;;23.97;44.31;101816.31;5087799;28;20031;-47
2023/03/20 09:29:52;;;;;;;385.65;278.63;;;;;;;24.03;44.53;101820.81;5088883;28;20036;-47
2023/03/20 09:32:19;;;;;;;379.45;273.65;;;;;;;24.00;44.32;101816.38;5088694;28;20035;-47
2023/03/20 09:34:46;;;;;;;381.80;273.92;;;;;;;23.85;44.77;101784.47;5084427;28;20070;-48
2023/03/20 09:37:13;;;;;;;416.25;291.42;;;;;;;24.10;44.61;101807.91;5082824;28;20374;-48
2023/03/20 09:39:41;;;;;;;414.85;280.98;;;;;;;24.08;44.66;101817.47;5088922;28;20543;-47
2023/03/20 09:42:47;;;;;;;390.15;277.02;;;;;;;24.08;44.07;101807.00;5088915;28;20462;-47
2023/03/20 09:45:20;;;;;;;392.95;280.83;;;;;;;24.10;44.19;101810.53;5086881;28;20474;-48
2023/03/20 09:48:04;;;;;;;376.23;267.00;;;;;;;24.13;44.01;101809.72;5079192;28;20470;-50
2023/03/20 09:50:37;;;;;;;368.08;265.25;;;;;;;24.20;44.02;101808.13;5083944;28;20099;-47
2023/03/20 09:53:14;;;;;;;360.90;259.63;;;;;;;24.25;44.32;101804.78;5087230;28;20036;-48
2023/03/20 09:55:41;;;;;;;343.42;254.75;;;;;;;24.30;43.92;101802.31;5062413;28;20032;-50
2023/03/20 09:58:30;;;;;;;353.33;260.88;;;;;;;24.21;44.45;101805.56;5078429;28;20040;-49
2023/03/20 10:01:00;;;;;;;360.73;261.67;;;;;;;24.25;43.66;101806.53;5080468;28;20466;-49
2023/03/20 10:03:52;;;;;;;343.98;254.48;;;;;;;24.20;44.00;101806.44;5078687;28;20028;-51
2023/03/20 10:06:20;;;;;;;352.67;253.15;;;;;;;24.24;43.76;101795.13;5079053;28;20040;-52
2023/03/20 10:08:48;;;;;;;346.73;254.63;;;;;;;24.22;44.03;101799.50;5071301;28;20396;-51
2023/03/20 10:11:38;;;;;;;351.35;254.18;;;;;;;24.23;43.86;101797.75;5074922;28;20036;-47
2023/03/20 10:14:21;;;;;;;355.30;261.98;;;;;;;24.27;43.81;101812.72;5068793;28;20444;-50
2023/03/20 10:16:54;;;;;;;355.58;256.65;;;;;;;24.27;43.84;101810.97;5071403;28;20110;-49
2023/03/20 10:19:28;;;;;;;330.55;251.88;;;;;;;24.22;43.62;101809.97;5072946;28;20428;-50
2023/03/20 10:22:23;;;;;;;335.50;248.32;;;;;;;24.24;43.84;101808.25;5075346;28;20410;-50
2023/03/20 10:24:55;;;;;;;;;;;;;;;24.30;43.78;101806.63;5069670;28;20064;-47
2023/03/20 10:27:25;;;;;;;332.77;249.95;;;;;;;24.27;43.43;101802.22;5073578;28;19913;-47
2023/03/20 10:30:05;;;;;;;352.65;253.48;;;;;;;24.29;43.64;101800.53;5074199;28;20025;-53
2023/03/20 10:32:36;;;;;;;337.95;249.30;;;;;;;24.36;43.37;101815.53;5074704;28;20142;-52
2023/03/20 10:35:23;;;;;;;330.20;249.73;;;;;;;24.40;43.48;101812.16;5075097;28;20031;-47
2023/03/20 10:38:16;;;;;;;333.10;253.93;;;;;;;24.33;43.73;101806.72;5069089;28;20068;-47
2023/03/20 10:40:44;;;;;;;337.90;250.70;;;;;;;24.33;43.46;101812.84;5056203;28;20047;-48
2023/03/20 10:43:31;;;;;;;354.80;257.73;;;;;;;24.34;43.87;101814.63;5065058;28;20452;-48
2023/03/20 10:46:23;;;;;;;338.40;253.63;;;;;;;24.28;43.99;101815.34;5070803;28;20119;-49
2023/03/20 10:49:05;;;;;;;331.13;247.88;;;;;;;24.25;43.98;101803.91;5065255;28;20071;-47
2023/03/20 10:51:54;;;;;;;340.38;251.32;;;;;;;24.36;43.65;101805.06;5073662;28;20037;-51
2023/03/20 10:54:39;;;;;;;334.52;253.32;;;;;;;24.23;43.65;101805.59;5068813;28;20028;-49
2023/03/20 10:57:13;;;;;;;333.33;247.30;;;;;;;24.22;43.77;101798.59;5073480;28;21284;-49
2023/03/20 10:59:44;;;;;;;341.47;252.50;;;;;;;24.23;43.76;101805.59;5073476;28;20111;-52
2023/03/20 11:02:13;;;;;;;329.45;244.68;;;;;;;24.38;43.13;101812.97;5067929;28;20028;-51
2023/03/20 11:04:41;;;;;;;332.58;254.18;;;;;;;24.50;43.49;101808.03;5071063;28;20063;-49
2023/03/20 11:07:12;;;;;;;341.35;249.25;;;;;;;24.71;42.99;101806.81;5073597;28;20028;-50
2023/03/20 11:09:40;;;;;;;328.50;248.93;;;;;;;24.81;42.77;101797.41;5072950;28;20037;-47
2023/03/20 11:12:17;;;;;;;323.35;251.45;;;;;;;24.80;42.64;101806.13;5073506;28;20471;-47
2023/03/20 11:14:45;;;;;;;307.67;231.18;;;;;;;24.64;43.10;101807.47;5067748;28;20034;-46
2023/03/20 11:17:13;;;;;;;309.08;234.05;;;;;;;24.43;43.19;101785.09;5073277;28;20086;-49
2023/03/20 11:19:41;;;;;;;310.70;230.52;;;;;;;24.49;43.54;101803.63;5068159;28;20020;-47
2023/03/20 11:22:29;;;;;;;305.65;226.85;;;;;;;24.45;43.35;101809.63;5073107;28;20025;-49
2023/03/20 11:25:00;;;;;;;313.63;232.68;;;;;;;24.45;43.36;101806.16;5066185;28;20383;-49
2023/03/20 11:27:31;;;;;;;299.15;223.40;;;;;;;24.36;43.61;101804.19;5053531;28;20021;-48
2023/03/20 11:30:03;;;;;;;280.67;220.05;;;;;;;24.38;43.34;101795.50;5069011;28;20025;-49
2023/03/20 11:32:32;;;;;;;286.25;217.25;;;;;;;24.41;43.22;101795.56;5072347;28;20090;-53
2023/03/20 11:35:19;;;;;;;302.92;225.57;;;;;;;24.34;43.40;101796.25;5068540;28;20402;-49
2023/03/20 11:37:49;;;;;;;303.73;226.13;;;;;;;24.42;43.72;101788.56;5068646;28;20478;-48
2023/03/20 11:40:23;;;;;;;312.67;233.32;;;;;;;24.27;43.81;101783.88;5072050;28;20034;-50
2023/03/20 11:42:55;;;;;;;301.10;226.02;;;;;;;24.37;44.00;101782.34;5072236;28;20107;-52
2023/03/20 11:45:24;;;;;;;294.33;224.25;;;;;;;24.40;44.13;101777.19;5067384;28;20067;-49
2023/03/20 11:47:54;;;;;;;302.40;230.13;;;;;;;24.50;44.35;101783.50;5071873;28;20105;-50
2023/03/20 11:50:32;;;;;;;302.35;226.63;;;;;;;24.49;44.18;101785.25;5069178;28;20033;-47
2023/03/20 11:53:03;;;;;;;308.10;232.05;;;;;;;24.46;44.78;101779.06;5069827;28;20397;-52
2023/03/20 11:55:34;;;;;;;291.58;224.77;;;;;;;24.55;44.17;101780.19;5069226;28;20456;-52
2023/03/20 11:58:04;;;;;;;278.05;211.73;;;;;;;24.59;44.03;101783.75;5054837;28;20128;-53
2023/03/20 12:00:38;;;;;;;299.40;221.57;;;;;;;24.48;44.78;101786.13;5052138;28;20025;-49
2023/03/20 12:03:36;;;;;;;309.05;229.90;;;;;;;24.48;44.39;101775.63;5052469;28;20025;-50
2023/03/20 12:06:08;;;;;;;290.80;221.50;;;;;;;24.45;44.58;101779.91;5050805;28;20025;-53
2023/03/20 12:08:37;;;;;;;295.13;229.20;;;;;;;24.40;44.60;101778.06;5066751;28;20020;-50
2023/03/20 12:11:31;;;;;;;289.33;220.50;;;;;;;24.48;44.31;101780.00;5072454;28;20355;-52
2023/03/20 12:13:59;;;;;;;277.30;206.55;;;;;;;24.54;44.28;101772.25;5064783;28;20398;-48
2023/03/20 12:16:29;;;;;;;273.58;207.60;;;;;;;24.55;44.05;101774.94;5072521;28;20138;-52
2023/03/20 12:19:01;;;;;;;279.85;212.10;;;;;;;24.58;44.03;101768.84;5072274;28;20039;-52
2023/03/20 12:21:42;;;;;;;282.15;215.27;;;;;;;24.54;44.22;101767.00;5067721;28;20531;-48
2023/03/20 12:24:14;;;;;;;283.80;220.95;;;;;;;24.46;44.47;101763.34;5069960;28;20035;-50
2023/03/20 12:26:54;;;;;;;302.83;225.30;;;;;;;24.48;44.18;101754.63;5069052;28;20029;-53
2023/03/20 12:30:00;;;;;;;307.33;233.43;;;;;;;24.53;44.06;101755.66;5068410;28;20021;-51
2023/03/20 12:32:39;;;;;;;299.48;227.35;;;;;;;24.58;44.10;101750.50;5068014;28;20020;-50
2023/03/20 15:41:37;;;;;;;154.50;114.32;;;;;;;24.80;41.61;101640.81;6074937;23;20134;-50
2023/03/20 15:44:27;;;;;;;143.25;110.05;;;;;;;24.77;41.82;101638.97;4931470;29;20075;-51
2023/03/20 15:46:57;;;;;;;138.98;103.30;;;;;;;24.79;41.26;101634.66;4901308;29;20040;-50
2023/03/20 15:49:26;;;;;;;144.63;103.32;;;;;;;24.78;41.18;101634.63;4900766;29;20028;-48
2023/03/20 15:51:58;;;;;;;143.30;100.18;;;;;;;24.78;41.14;101634.63;4917626;29;20028;-48
2023/03/20 15:54:26;;;;;;;134.35;99.05;;;;;;;24.84;40.89;101627.78;4917156;29;20426;-52
2023/03/20 15:56:56;;;;;;;130.32;95.80;;;;;;;24.75;41.12;101614.44;4917447;29;20028;-48
2023/03/20 15:59:28;;;;;;;141.52;102.57;;;;;;;24.68;41.27;101621.28;4916545;29;20076;-46
2023/03/20 16:01:59;;;;;;;130.43;97.80;;;;;;;24.69;41.03;101612.56;4917279;29;20024;-47
2023/03/20 16:04:27;;;;;;;132.10;98.85;;;;;;;24.74;41.09;101617.94;4917354;29;20401;-49
2023/03/20 16:06:58;;;;;;;127.40;95.05;;;;;;;24.75;40.79;101598.72;4917217;29;20111;-51
2023/03/20 16:09:28;;;;;;;131.48;94.57;;;;;;;24.56;40.76;101584.31;4900560;29;20382;-49
2023/03/20 16:11:58;;;;;;;126.35;91.80;;;;;;;24.71;41.03;101608.25;4917468;29;20101;-51
2023/03/20 16:14:29;;;;;;;131.57;96.88;;;;;;;24.80;41.12;101601.44;4917625;29;20431;-49
2023/03/20 16:17:00;;;;;;;130.35;93.32;;;;;;;24.78;41.09;101603.16;4917051;29;20096;-49
2023/03/20 16:19:28;;;;;;;140.50;99.03;;;;;;;24.72;40.85;101585.56;4917322;29;20039;-49
2023/03/20 16:21:59;;;;;;;130.20;95.38;;;;;;;24.81;40.86;101590.09;4900038;29;20028;-50
2023/03/20 16:24:30;;;;;;;136.50;99.22;;;;;;;24.79;40.96;101584.81;4916514;29;20099;-49
2023/03/20 16:26:58;;;;;;;140.65;100.18;;;;;;;24.70;41.09;101577.63;4900230;29;20028;-50
2023/03/20 16:29:29;;;;;;;139.27;101.47;;;;;;;24.75;41.07;101588.22;4900264;29;20107;-50
2023/03/20 16:32:01;;;;;;;141.07;102.75;;;;;;;24.69;41.00;101581.06;4917132;29;20110;-50
2023/03/20 16:34:35;;;;;;;137.82;100.05;;;;;;;24.75;41.10;101582.09;4917166;29;20028;-48
2023/03/20 16:37:09;;;;;;;140.88;101.97;;;;;;;24.76;40.85;101579.50;4915768;29;20446;-50
2023/03/20 16:39:37;;;;;;;151.95;104.75;;;;;;;24.68;40.83;101578.44;4917053;29;20028;-50
2023/03/20 16:42:09;;;;;;;137.85;101.15;;;;;;;24.65;41.04;101565.25;4916439;29;20040;-52
2023/03/20 16:44:41;;;;;;;139.52;100.57;;;;;;;24.70;40.89;101564.50;4916924;29;20048;-49
2023/03/20 16:47:38;;;;;;;148.20;105.30;;;;;;;24.71;41.08;101558.41;4917081;29;20048;-48
2023/03/20 16:50:17;;;;;;;140.07;102.38;;;;;;;24.77;40.72;101559.41;4912996;29;20549;-49
2023/03/20 16:52:49;;;;;;;143.77;105.03;;;;;;;24.62;41.11;101558.22;4916844;29;20438;-50
2023/03/20 16:55:23;;;;;;;154.57;111.38;;;;;;;24.66;40.91;101562.66;4916732;29;20036;-51
2023/03/20 16:57:55;;;;;;;143.38;106.85;;;;;;;24.65;40.82;101563.53;4916945;29;20047;-50
2023/03/20 17:00:27;;;;;;;156.73;110.95;;;;;;;24.66;41.02;101557.41;4916805;29;20040;-48
2023/03/20 17:03:16;;;;;;;163.60;112.60;;;;;;;24.62;41.21;101563.47;4916521;29;20111;-48
2023/03/20 17:06:06;;;;;;;163.52;117.07;;;;;;;24.63;41.14;101564.34;4916347;29;20024;-50
2023/03/20 17:08:38;;;;;;;159.88;113.32;;;;;;;24.58;41.12;101562.50;4901485;29;20083;-48
2023/03/20 17:11:13;;;;;;;153.27;112.05;;;;;;;24.54;41.38;101554.53;4899814;29;20032;-49
2023/03/20 17:13:42;;;;;;;166.40;116.43;;;;;;;24.57;41.03;101563.34;4900295;29;20489;-49
2023/03/20 17:16:16;;;;;;;166.25;113.43;;;;;;;24.54;40.93;101565.94;4916176;29;20552;-49
2023/03/20 17:18:47;;;;;;;162.13;118.50;;;;;;;24.54;41.26;101573.81;4918034;29;20554;-48
2023/03/20 17:21:15;;;;;;;165.35;117.28;;;;;;;24.53;41.28;101561.53;4920332;29;20481;-49
2023/03/20 17:23:44;;;;;;;161.23;116.35;;;;;;;24.40;40.91;101544.66;4920430;29;20047;-49
2023/03/20 17:26:12;;;;;;;167.25;119.38;;;;;;;24.49;41.04;101554.47;4920383;29;20036;-52
2023/03/20 17:28:41;;;;;;;167.85;120.20;;;;;;;24.44;41.34;101556.09;4920534;29;20032;-49
2023/03/20 17:31:14;;;;;;;166.52;121.05;;;;;;;24.46;40.94;101550.91;4920170;29;20043;-49
2023/03/20 17:33:43;;;;;;;168.80;119.72;;;;;;;24.45;41.26;101547.38;4918594;29;20111;-49
2023/03/20 17:36:19;;;;;;;176.25;124.18;;;;;;;24.40;41.25;101552.53;4920363;29;20024;-50
2023/03/20 17:38:47;;;;;;;172.85;123.13;;;;;;;24.43;40.87;101542.13;4918647;29;20031;-49
2023/03/20 17:41:17;;;;;;;172.35;122.50;;;;;;;24.43;40.90;101542.13;4920156;29;20025;-53
2023/03/20 17:43:46;;;;;;;173.73;126.05;;;;;;;24.42;41.02;101542.06;4919666;29;20151;-49
2023/03/20 17:46:26;;;;;;;180.13;128.00;;;;;;;24.39;41.33;101531.53;4920322;29;20044;-49
2023/03/20 17:49:00;;;;;;;196.80;133.98;;;;;;;24.40;41.14;101542.03;4903031;29;20040;-50
2023/03/20 17:51:29;;;;;;;183.70;127.20;;;;;;;24.43;40.93;101542.13;4919008;29;20032;-51
2023/03/20 17:53:57;;;;;;;177.10;123.90;;;;;;;24.41;41.08;101549.06;4919692;29;20485;-49
2023/03/20 17:56:31;;;;;;;180.65;126.75;;;;;;;24.39;41.10;101532.41;4919672;29;20374;-50
2023/03/20 17:59:00;;;;;;;161.65;116.15;;;;;;;24.46;40.75;101545.66;4909631;29;20028;-50
2023/03/20 18:01:27;;;;;;;165.32;117.30;;;;;;;24.40;41.15;101544.66;4937155;29;20027;-50
2023/03/20 18:03:55;;;;;;;171.52;124.20;;;;;;;24.29;40.86;101530.47;4937668;29;20052;-51
2023/03/20 18:06:26;;;;;;;173.52;118.45;;;;;;;24.36;41.03;101547.19;4937780;29;20107;-49
2023/03/20 18:08:55;;;;;;;167.70;117.80;;;;;;;24.35;40.91;101542.81;4920682;29;20055;-50
2023/03/20 18:11:22;;;;;;;176.73;122.78;;;;;;;24.32;40.78;101538.41;4943376;29;20095;-48
2023/03/20 18:13:50;;;;;;;169.02;119.68;;;;;;;24.31;41.05;101541.88;4939335;29;20023;-53
2023/03/20 18:16:21;;;;;;;167.98;119.40;;;;;;;24.33;40.83;101536.63;4937451;29;20459;-49
2023/03/20 18:18:50;;;;;;;170.57;119.43;;;;;;;24.16;40.54;101505.72;4937042;29;20051;-48
2023/03/20 18:21:18;;;;;;;177.82;124.22;;;;;;;24.32;41.02;101540.13;4936733;29;20050;-48
2023/03/20 18:23:47;;;;;;;177.65;121.97;;;;;;;24.24;41.15;101539.97;4936417;29;20031;-50
2023/03/20 18:26:21;;;;;;;175.27;119.68;;;;;;;24.24;40.72;101530.34;4936740;29;20032;-53
2023/03/20 18:28:50;;;;;;;170.18;121.88;;;;;;;24.30;41.03;101534.84;4933961;29;20055;-50
2023/03/20 18:31:19;;;;;;;180.93;125.53;;;;;;;24.32;40.74;101529.63;4936416;29;20082;-49
2023/03/20 18:33:48;;;;;;;175.95;120.40;;;;;;;24.28;40.79;101542.66;4937487;29;20024;-49
2023/03/20 18:36:18;;;;;;;173.95;119.93;;;;;;;24.29;40.91;101533.09;4936609;29;20038;-47
2023/03/20 18:38:47;;;;;;;170.80;120.75;;;;;;;24.31;40.90;101536.63;4936139;29;20405;-48
2023/03/20 18:41:14;;;;;;;175.73;121.65;;;;;;;24.30;40.95;101544.44;4933576;29;20489;-49
2023/03/20 18:43:42;;;;;;;175.25;124.65;;;;;;;24.31;41.06;101541.88;4935716;29;20146;-49
2023/03/20 18:46:14;;;;;;;178.00;123.80;;;;;;;24.28;41.33;101537.41;4935328;29;20405;-48
2023/03/20 18:48:43;;;;;;;185.82;124.40;;;;;;;24.38;40.83;101538.50;4935360;29;20024;-51
2023/03/20 18:51:11;;;;;;;177.10;122.90;;;;;;;24.34;41.28;101541.91;4939879;29;20072;-48
2023/03/20 18:53:39;;;;;;;181.20;122.65;;;;;;;24.34;41.39;101538.41;4935741;29;20378;-52
2023/03/20 18:56:21;;;;;;;167.63;118.68;;;;;;;24.29;41.27;101538.31;4935882;29;20358;-51
2023/03/20 18:58:49;;;;;;;180.18;121.82;;;;;;;24.32;41.41;101541.03;4919528;29;20031;-50
2023/03/20 19:01:16;;;;;;;183.82;127.25;;;;;;;24.39;41.28;101535.03;4936401;29;20038;-50
2023/03/20 19:03:45;;;;;;;184.73;127.15;;;;;;;24.30;41.62;101533.94;4935287;29;20397;-50
2023/03/20 19:06:15;;;;;;;178.70;123.10;;;;;;;24.33;41.43;101524.41;4919052;29;20028;-50
2023/03/20 19:08:44;;;;;;;190.52;130.13;;;;;;;24.33;41.70;101527.03;4936393;29;20023;-49
2023/03/20 19:11:15;;;;;;;197.18;132.27;;;;;;;24.37;41.48;101526.25;4935412;29;20110;-49
2023/03/20 19:13:47;;;;;;;189.38;132.02;;;;;;;24.39;41.49;101521.91;4919972;29;20062;-48
2023/03/20 19:16:22;;;;;;;185.60;130.00;;;;;;;24.35;41.51;101517.44;4935791;29;20493;-47
2023/03/20 19:18:51;;;;;;;196.70;133.23;;;;;;;24.38;41.64;101520.16;4935743;29;20039;-47
2023/03/20 19:21:24;;;;;;;186.90;132.13;;;;;;;24.41;41.70;101525.47;4935211;29;20052;-47
2023/03/20 19:23:55;;;;;;;191.65;128.48;;;;;;;24.41;41.65;101524.56;4932491;29;20040;-47
2023/03/20 19:26:24;;;;;;;196.25;129.88;;;;;;;24.39;41.61;101507.94;4933011;29;20062;-47
2023/03/20 19:28:53;;;;;;;181.90;128.50;;;;;;;24.41;41.35;101511.44;4932760;29;20034;-48
2023/03/20 19:31:22;;;;;;;193.73;130.80;;;;;;;24.40;41.47;101510.56;4934726;29;20114;-49
2023/03/20 19:33:50;;;;;;;182.43;129.15;;;;;;;24.34;41.64;101501.69;4935332;29;20103;-47
2023/03/20 19:36:36;;;;;;;194.10;131.73;;;;;;;24.33;41.82;101500.81;4937788;29;20028;-48
2023/03/20 19:39:06;;;;;;;194.82;134.23;;;;;;;24.30;42.08;101498.16;4918217;29;20031;-47
2023/03/20 19:41:34;;;;;;;184.13;127.30;;;;;;;24.33;41.63;101492.94;4934500;29;20020;-47
2023/03/20 19:44:01;;;;;;;184.63;126.10;;;;;;;24.30;41.70;101487.66;4934835;29;20471;-48
2023/03/20 19:46:30;;;;;;;185.40;127.25;;;;;;;24.30;41.76;101489.38;4935377;29;20035;-49
2023/03/20 19:48:57;;;;;;;183.02;126.82;;;;;;;24.34;41.81;101493.84;4935148;29;20019;-51
2023/03/20 19:51:27;;;;;;;173.20;123.32;;;;;;;24.25;41.45;101487.53;4934683;29;20031;-48
2023/03/20 19:53:55;;;;;;;179.80;121.55;;;;;;;24.22;41.51;101478.75;4937261;29;20027;-50
2023/03/20 19:56:23;;;;;;;175.10;121.13;;;;;;;24.25;41.52;101473.56;4934119;29;20028;-49
2023/03/20 19:58:52;;;;;;;172.88;122.72;;;;;;;24.27;41.66;101469.25;4934899;29;20034;-49
2023/03/20 20:01:22;;;;;;;167.88;114.57;;;;;;;24.20;41.48;101467.34;4934283;29;20042;-48
2023/03/20 20:03:52;;;;;;;164.02;114.57;;;;;;;24.32;41.63;101461.44;4934790;29;20106;-48
2023/03/20 20:06:19;;;;;;;166.57;113.88;;;;;;;24.30;41.56;101464.06;4938375;29;20031;-49
2023/03/20 20:08:46;;;;;;;167.23;114.25;;;;;;;24.30;41.44;101452.66;4934474;29;20032;-49
2023/03/20 20:11:14;;;;;;;173.05;115.97;;;;;;;24.21;41.78;101456.00;4934397;29;20055;-50
2023/03/20 20:13:42;;;;;;;159.35;112.78;;;;;;;24.25;41.66;101458.69;4920476;29;20095;-49
2023/03/20 20:16:10;;;;;;;166.30;114.97;;;;;;;24.27;41.35;101464.88;4934559;29;20066;-48
2023/03/20 20:18:37;;;;;;;158.10;112.07;;;;;;;24.22;41.80;101455.16;4935025;29;20036;-48
2023/03/20 20:21:05;;;;;;;151.10;108.57;;;;;;;24.22;41.83;101453.44;4931779;29;20028;-49
2023/03/20 20:23:32;;;;;;;151.23;105.47;;;;;;;24.30;41.48;101460.53;4934181;29;20083;-49
2023/03/20 20:26:03;;;;;;;144.82;100.63;;;;;;;24.30;41.54;101450.03;4934452;29;20110;-48
2023/03/20 20:28:31;;;;;;;150.48;101.90;;;;;;;24.25;41.42;101455.22;4933684;29;20035;-50
2023/03/20 20:30:58;;;;;;;141.98;103.32;;;;;;;24.25;41.37;101452.59;4934360;29;20032;-49
2023/03/20 20:33:26;;;;;;;140.40;96.32;;;;;;;24.32;40.99;101453.59;4934088;29;20039;-48
2023/03/20 20:35:54;;;;;;;130.82;91.88;;;;;;;24.36;41.45;101439.69;4917508;29;20036;-48
2023/03/20 20:38:22;;;;;;;123.28;87.43;;;;;;;24.39;41.24;101429.25;4934291;29;20038;-48
2023/03/20 20:40:51;;;;;;;124.78;88.00;;;;;;;24.39;41.13;101435.38;4934150;29;20103;-48
2023/03/20 20:43:18;;;;;;;120.18;83.03;;;;;;;24.35;41.21;101424.81;4933382;29;20055;-48
2023/03/20 20:45:46;;;;;;;115.13;81.22;;;;;;;24.28;41.39;101431.69;4934441;29;20127;-50
2023/03/20 20:48:13;;;;;;;122.47;85.25;;;;;;;24.24;41.59;101425.47;4917447;29;20028;-48
2023/03/20 20:50:43;;;;;;;119.13;84.80;;;;;;;24.27;41.35;101414.19;4934188;29;20038;-49
2023/03/20 20:53:10;;;;;;;115.13;80.93;;;;;;;24.28;41.14;101423.81;4936834;29;20456;-49
2023/03/20 20:55:37;;;;;;;120.55;81.75;;;;;;;24.20;41.38;101415.81;4917029;29;20055;-49
2023/03/20 20:58:05;;;;;;;105.78;76.78;;;;;;;24.21;41.53;101424.53;4936850;29;20449;-49
2023/03/20 21:00:32;;;;;;;109.40;78.90;;;;;;;24.26;41.21;101421.16;4934301;29;20031;-49
2023/03/20 21:03:00;;;;;;;106.95;77.10;;;;;;;24.26;41.58;101418.53;4917433;29;20048;-48
2023/03/20 21:05:29;;;;;;;108.45;74.07;;;;;;;24.28;41.06;101418.56;4917362;29;20099;-48
2023/03/20 21:07:57;;;;;;;107.70;75.20;;;;;;;24.30;41.18;101408.09;4934282;29;20115;-48
2023/03/20 21:10:26;;;;;;;108.57;77.50;;;;;;;24.25;41.29;101401.03;4934656;29;20485;-49
2023/03/20 21:12:54;;;;;;;107.35;75.70;;;;;;;24.20;41.18;101394.84;4946998;29;20043;-47
2023/03/20 21:15:22;;;;;;;103.70;75.20;;;;;;;24.12;41.62;101399.94;4940260;29;20028;-50
2023/03/20 21:17:50;;;;;;;110.75;75.63;;;;;;;24.12;41.52;101388.53;4934608;29;20562;-49
2023/03/20 21:20:17;;;;;;;108.03;74.13;;;;;;;24.14;41.50;101385.97;4934782;29;20088;-47
2023/03/20 21:22:44;;;;;;;105.03;75.43;;;;;;;24.18;41.69;101388.69;4933694;29;20451;-49
2023/03/20 21:25:15;;;;;;;103.70;74.05;;;;;;;24.16;41.29;101379.91;4934640;29;20064;-48
2023/03/20 21:27:44;;;;;;;100.03;72.10;;;;;;;24.15;41.68;101382.50;4935133;29;20043;-53
